sensor_id;sensor_type;location;lat;lon;timestamp;temperature;humidity
24262;DHT22;12385;51.412;5.540;2023-04-03T00:01:14;3.80;99.90
24262;DHT22;12385;51.412;5.540;2023-04-03T00:03:40;3.80;99.90
24262;DHT22;12385;51.412;5.540;2023-04-03T00:06:09;3.70;99.90
24262;DHT22;12385;51.412;5.540;2023-04-03T00:08:37;3.60;99.90
24262;DHT22;12385;51.412;5.540;2023-04-03T00:11:03;3.60;99.90
24262;DHT22;12385;51.412;5.540;2023-04-03T00:13:30;3.60;99.90
24262;DHT22;12385;51.412;5.540;2023-04-03T00:15:56;3.50;99.90
24262;DHT22;12385;51.412;5.540;2023-04-03T00:18:22;3.50;99.90
24262;DHT22;12385;51.412;5.540;2023-04-03T00:20:48;3.50;99.90
24262;DHT22;12385;51.412;5.540;2023-04-03T00:23:14;3.50;99.90
24262;DHT22;12385;51.412;5.540;2023-04-03T00:25:40;3.50;99.90
24262;DHT22;12385;51.412;5.540;2023-04-03T00:28:06;3.40;99.90
24262;DHT22;12385;51.412;5.540;2023-04-03T00:30:32;3.40;99.90
24262;DHT22;12385;51.412;5.540;2023-04-03T00:32:57;3.40;99.90
24262;DHT22;12385;51.412;5.540;2023-04-03T00:35:25;3.30;99.90
24262;DHT22;12385;51.412;5.540;2023-04-03T00:37:51;3.30;99.90
24262;DHT22;12385;51.412;5.540;2023-04-03T00:40:18;3.30;99.90
24262;DHT22;12385;51.412;5.540;2023-04-03T00:42:46;3.30;99.90
24262;DHT22;12385;51.412;5.540;2023-04-03T00:47:51;3.10;99.90
24262;DHT22;12385;51.412;5.540;2023-04-03T00:50:17;3.10;99.90
24262;DHT22;12385;51.412;5.540;2023-04-03T00:52:43;3.10;99.90
24262;DHT22;12385;51.412;5.540;2023-04-03T00:55:12;3.00;99.90
24262;DHT22;12385;51.412;5.540;2023-04-03T00:57:40;3.00;99.90
24262;DHT22;12385;51.412;5.540;2023-04-03T01:00:11;3.00;99.90
24262;DHT22;12385;51.412;5.540;2023-04-03T01:02:37;3.00;99.90
24262;DHT22;12385;51.412;5.540;2023-04-03T01:05:06;3.00;99.90
24262;DHT22;12385;51.412;5.540;2023-04-03T01:07:32;2.90;99.90
24262;DHT22;12385;51.412;5.540;2023-04-03T01:10:03;2.90;99.90
24262;DHT22;12385;51.412;5.540;2023-04-03T01:12:38;2.90;99.90
24262;DHT22;12385;51.412;5.540;2023-04-03T01:15:07;2.90;99.90
24262;DHT22;12385;51.412;5.540;2023-04-03T01:17:34;2.90;99.90
24262;DHT22;12385;51.412;5.540;2023-04-03T01:25:58;2.80;99.90
24262;DHT22;12385;51.412;5.540;2023-04-03T01:28:30;2.70;99.90
24262;DHT22;12385;51.412;5.540;2023-04-03T01:33:42;2.70;99.90
24262;DHT22;12385;51.412;5.540;2023-04-03T01:36:16;2.70;99.90
24262;DHT22;12385;51.412;5.540;2023-04-03T01:38:43;2.70;99.90
24262;DHT22;12385;51.412;5.540;2023-04-03T01:41:09;2.60;99.90
24262;DHT22;12385;51.412;5.540;2023-04-03T01:43:35;2.50;99.90
24262;DHT22;12385;51.412;5.540;2023-04-03T01:46:00;2.50;99.90
24262;DHT22;12385;51.412;5.540;2023-04-03T01:48:26;2.50;99.90
24262;DHT22;12385;51.412;5.540;2023-04-03T01:50:53;2.50;99.90
24262;DHT22;12385;51.412;5.540;2023-04-03T01:53:19;2.50;99.90
24262;DHT22;12385;51.412;5.540;2023-04-03T01:55:45;2.50;99.90
24262;DHT22;12385;51.412;5.540;2023-04-03T01:58:11;2.50;99.90
24262;DHT22;12385;51.412;5.540;2023-04-03T02:00:37;2.50;99.90
24262;DHT22;12385;51.412;5.540;2023-04-03T02:03:03;2.40;99.90
24262;DHT22;12385;51.412;5.540;2023-04-03T02:05:28;2.50;99.90
24262;DHT22;12385;51.412;5.540;2023-04-03T02:07:54;2.40;99.90
24262;DHT22;12385;51.412;5.540;2023-04-03T02:10:20;2.40;99.90
24262;DHT22;12385;51.412;5.540;2023-04-03T02:12:46;2.40;99.90
24262;DHT22;12385;51.412;5.540;2023-04-03T02:15:12;2.40;99.90
24262;DHT22;12385;51.412;5.540;2023-04-03T02:17:37;2.40;99.90
24262;DHT22;12385;51.412;5.540;2023-04-03T02:20:04;2.40;99.90
24262;DHT22;12385;51.412;5.540;2023-04-03T02:22:30;2.40;99.90
24262;DHT22;12385;51.412;5.540;2023-04-03T02:24:55;2.40;99.90
24262;DHT22;12385;51.412;5.540;2023-04-03T02:27:21;2.40;99.90
24262;DHT22;12385;51.412;5.540;2023-04-03T02:29:48;2.40;99.90
24262;DHT22;12385;51.412;5.540;2023-04-03T02:32:14;2.40;99.90
24262;DHT22;12385;51.412;5.540;2023-04-03T02:34:39;2.40;99.90
24262;DHT22;12385;51.412;5.540;2023-04-03T02:37:06;2.40;99.90
24262;DHT22;12385;51.412;5.540;2023-04-03T02:39:31;2.30;99.90
24262;DHT22;12385;51.412;5.540;2023-04-03T02:41:57;2.30;99.90
24262;DHT22;12385;51.412;5.540;2023-04-03T02:44:24;2.30;99.90
24262;DHT22;12385;51.412;5.540;2023-04-03T02:46:50;2.30;99.90
24262;DHT22;12385;51.412;5.540;2023-04-03T02:49:15;2.30;99.90
24262;DHT22;12385;51.412;5.540;2023-04-03T02:51:41;2.20;99.90
24262;DHT22;12385;51.412;5.540;2023-04-03T02:54:07;2.20;99.90
24262;DHT22;12385;51.412;5.540;2023-04-03T02:56:33;2.20;99.90
24262;DHT22;12385;51.412;5.540;2023-04-03T02:59:00;2.30;99.90
24262;DHT22;12385;51.412;5.540;2023-04-03T03:01:26;2.30;99.90
24262;DHT22;12385;51.412;5.540;2023-04-03T03:03:54;2.30;99.90
24262;DHT22;12385;51.412;5.540;2023-04-03T03:06:20;2.30;99.90
24262;DHT22;12385;51.412;5.540;2023-04-03T03:08:45;2.30;99.90
24262;DHT22;12385;51.412;5.540;2023-04-03T03:11:11;2.40;99.90
24262;DHT22;12385;51.412;5.540;2023-04-03T03:13:38;2.40;99.90
24262;DHT22;12385;51.412;5.540;2023-04-03T03:16:04;2.40;99.90
24262;DHT22;12385;51.412;5.540;2023-04-03T03:18:34;2.40;99.90
24262;DHT22;12385;51.412;5.540;2023-04-03T03:21:01;2.40;99.90
24262;DHT22;12385;51.412;5.540;2023-04-03T03:23:30;2.40;99.90
24262;DHT22;12385;51.412;5.540;2023-04-03T03:25:58;2.40;99.90
24262;DHT22;12385;51.412;5.540;2023-04-03T03:28:24;2.50;99.90
24262;DHT22;12385;51.412;5.540;2023-04-03T03:30:50;2.50;99.90
24262;DHT22;12385;51.412;5.540;2023-04-03T03:33:16;2.50;99.90
24262;DHT22;12385;51.412;5.540;2023-04-03T03:35:43;2.50;99.90
24262;DHT22;12385;51.412;5.540;2023-04-03T03:38:09;2.50;99.90
24262;DHT22;12385;51.412;5.540;2023-04-03T03:40:35;2.50;99.90
24262;DHT22;12385;51.412;5.540;2023-04-03T03:43:01;2.50;99.90
24262;DHT22;12385;51.412;5.540;2023-04-03T03:45:29;2.60;99.90
24262;DHT22;12385;51.412;5.540;2023-04-03T03:47:54;2.50;99.90
24262;DHT22;12385;51.412;5.540;2023-04-03T03:50:20;2.50;99.90
24262;DHT22;12385;51.412;5.540;2023-04-03T03:52:46;2.50;99.90
24262;DHT22;12385;51.412;5.540;2023-04-03T03:55:12;2.50;99.90
24262;DHT22;12385;51.412;5.540;2023-04-03T03:57:38;2.50;99.90
24262;DHT22;12385;51.412;5.540;2023-04-03T04:00:04;2.50;99.90
24262;DHT22;12385;51.412;5.540;2023-04-03T04:02:30;2.40;99.90
24262;DHT22;12385;51.412;5.540;2023-04-03T04:04:56;2.50;99.90
24262;DHT22;12385;51.412;5.540;2023-04-03T04:07:22;2.50;99.90
24262;DHT22;12385;51.412;5.540;2023-04-03T04:09:48;2.50;99.90
24262;DHT22;12385;51.412;5.540;2023-04-03T04:12:14;2.50;99.90
24262;DHT22;12385;51.412;5.540;2023-04-03T04:14:40;2.40;99.90
24262;DHT22;12385;51.412;5.540;2023-04-03T04:17:05;2.40;99.90
24262;DHT22;12385;51.412;5.540;2023-04-03T04:19:31;2.50;99.90
24262;DHT22;12385;51.412;5.540;2023-04-03T04:21:58;2.40;99.90
24262;DHT22;12385;51.412;5.540;2023-04-03T04:24:24;2.40;99.90
24262;DHT22;12385;51.412;5.540;2023-04-03T04:26:50;2.40;99.90
24262;DHT22;12385;51.412;5.540;2023-04-03T04:29:16;2.40;99.90
24262;DHT22;12385;51.412;5.540;2023-04-03T04:31:41;2.40;99.90
24262;DHT22;12385;51.412;5.540;2023-04-03T04:34:07;2.40;99.90
24262;DHT22;12385;51.412;5.540;2023-04-03T04:36:33;2.40;99.90
24262;DHT22;12385;51.412;5.540;2023-04-03T04:38:59;2.30;99.90
24262;DHT22;12385;51.412;5.540;2023-04-03T04:41:25;2.40;99.90
24262;DHT22;12385;51.412;5.540;2023-04-03T04:43:51;2.30;99.90
24262;DHT22;12385;51.412;5.540;2023-04-03T04:46:18;2.30;99.90
24262;DHT22;12385;51.412;5.540;2023-04-03T04:48:45;2.30;99.90
24262;DHT22;12385;51.412;5.540;2023-04-03T04:51:11;2.30;99.90
24262;DHT22;12385;51.412;5.540;2023-04-03T04:53:37;2.30;99.90
24262;DHT22;12385;51.412;5.540;2023-04-03T04:56:04;2.30;99.90
24262;DHT22;12385;51.412;5.540;2023-04-03T04:58:30;2.30;99.90
24262;DHT22;12385;51.412;5.540;2023-04-03T05:01:04;2.30;99.90
24262;DHT22;12385;51.412;5.540;2023-04-03T05:03:31;2.30;99.90
24262;DHT22;12385;51.412;5.540;2023-04-03T05:05:57;2.30;99.90
24262;DHT22;12385;51.412;5.540;2023-04-03T05:08:22;2.30;99.90
24262;DHT22;12385;51.412;5.540;2023-04-03T05:10:49;2.30;99.90
24262;DHT22;12385;51.412;5.540;2023-04-03T05:13:14;2.30;99.90
24262;DHT22;12385;51.412;5.540;2023-04-03T05:15:40;2.30;99.90
24262;DHT22;12385;51.412;5.540;2023-04-03T05:18:07;2.20;99.90
24262;DHT22;12385;51.412;5.540;2023-04-03T05:20:33;2.20;99.90
24262;DHT22;12385;51.412;5.540;2023-04-03T05:22:59;2.30;99.90
24262;DHT22;12385;51.412;5.540;2023-04-03T05:25:25;2.20;99.90
24262;DHT22;12385;51.412;5.540;2023-04-03T05:27:51;2.20;99.90
24262;DHT22;12385;51.412;5.540;2023-04-03T05:30:16;2.30;99.90
24262;DHT22;12385;51.412;5.540;2023-04-03T05:32:42;2.20;99.90
24262;DHT22;12385;51.412;5.540;2023-04-03T05:35:08;2.20;99.90
24262;DHT22;12385;51.412;5.540;2023-04-03T05:37:34;2.30;99.90
24262;DHT22;12385;51.412;5.540;2023-04-03T05:40:00;2.30;99.90
24262;DHT22;12385;51.412;5.540;2023-04-03T05:42:27;2.20;99.90
24262;DHT22;12385;51.412;5.540;2023-04-03T05:44:52;2.30;99.90
24262;DHT22;12385;51.412;5.540;2023-04-03T05:47:19;2.30;99.90
24262;DHT22;12385;51.412;5.540;2023-04-03T05:49:45;2.30;99.90
24262;DHT22;12385;51.412;5.540;2023-04-03T05:52:30;2.30;99.90
24262;DHT22;12385;51.412;5.540;2023-04-03T05:54:57;2.30;99.90
24262;DHT22;12385;51.412;5.540;2023-04-03T05:57:23;2.40;99.90
24262;DHT22;12385;51.412;5.540;2023-04-03T05:59:49;2.40;99.90
24262;DHT22;12385;51.412;5.540;2023-04-03T06:02:17;2.40;99.90
24262;DHT22;12385;51.412;5.540;2023-04-03T06:04:43;2.40;99.90
24262;DHT22;12385;51.412;5.540;2023-04-03T06:07:17;2.50;99.90
24262;DHT22;12385;51.412;5.540;2023-04-03T06:09:45;2.50;99.90
24262;DHT22;12385;51.412;5.540;2023-04-03T06:12:11;2.50;99.90
24262;DHT22;12385;51.412;5.540;2023-04-03T06:14:37;2.60;99.90
24262;DHT22;12385;51.412;5.540;2023-04-03T06:17:03;2.50;99.90
24262;DHT22;12385;51.412;5.540;2023-04-03T06:19:29;2.60;99.90
24262;DHT22;12385;51.412;5.540;2023-04-03T06:21:56;2.60;99.90
24262;DHT22;12385;51.412;5.540;2023-04-03T06:24:22;2.70;99.90
24262;DHT22;12385;51.412;5.540;2023-04-03T06:26:49;2.70;99.90
24262;DHT22;12385;51.412;5.540;2023-04-03T06:29:17;2.70;99.90
24262;DHT22;12385;51.412;5.540;2023-04-03T06:31:44;2.80;99.90
24262;DHT22;12385;51.412;5.540;2023-04-03T06:34:10;2.90;99.90
24262;DHT22;12385;51.412;5.540;2023-04-03T06:36:38;2.90;99.90
24262;DHT22;12385;51.412;5.540;2023-04-03T06:39:04;2.90;99.90
24262;DHT22;12385;51.412;5.540;2023-04-03T06:41:30;3.00;99.90
24262;DHT22;12385;51.412;5.540;2023-04-03T06:43:56;3.00;99.90
24262;DHT22;12385;51.412;5.540;2023-04-03T06:46:24;3.00;99.90
24262;DHT22;12385;51.412;5.540;2023-04-03T06:48:51;3.10;99.90
24262;DHT22;12385;51.412;5.540;2023-04-03T06:51:25;3.10;99.90
24262;DHT22;12385;51.412;5.540;2023-04-03T06:53:52;3.20;99.90
24262;DHT22;12385;51.412;5.540;2023-04-03T06:56:18;3.20;99.90
24262;DHT22;12385;51.412;5.540;2023-04-03T06:58:45;3.30;99.90
24262;DHT22;12385;51.412;5.540;2023-04-03T07:01:12;3.30;99.90
24262;DHT22;12385;51.412;5.540;2023-04-03T07:03:39;3.30;99.90
24262;DHT22;12385;51.412;5.540;2023-04-03T07:06:06;3.40;99.90
24262;DHT22;12385;51.412;5.540;2023-04-03T07:08:32;3.40;99.90
24262;DHT22;12385;51.412;5.540;2023-04-03T07:10:58;3.50;99.90
24262;DHT22;12385;51.412;5.540;2023-04-03T07:13:24;3.60;99.90
24262;DHT22;12385;51.412;5.540;2023-04-03T07:15:50;3.60;99.90
24262;DHT22;12385;51.412;5.540;2023-04-03T07:18:16;3.70;99.90
24262;DHT22;12385;51.412;5.540;2023-04-03T07:20:45;3.70;99.90
24262;DHT22;12385;51.412;5.540;2023-04-03T07:23:11;3.80;99.90
24262;DHT22;12385;51.412;5.540;2023-04-03T07:25:37;3.80;99.90
24262;DHT22;12385;51.412;5.540;2023-04-03T07:28:03;3.80;99.90
24262;DHT22;12385;51.412;5.540;2023-04-03T07:30:29;3.90;99.90
24262;DHT22;12385;51.412;5.540;2023-04-03T07:32:55;3.90;99.90
24262;DHT22;12385;51.412;5.540;2023-04-03T07:35:20;3.90;99.90
24262;DHT22;12385;51.412;5.540;2023-04-03T07:37:46;4.00;99.90
24262;DHT22;12385;51.412;5.540;2023-04-03T07:40:12;4.10;99.90
24262;DHT22;12385;51.412;5.540;2023-04-03T07:42:38;4.10;99.90
24262;DHT22;12385;51.412;5.540;2023-04-03T07:45:04;4.20;99.90
24262;DHT22;12385;51.412;5.540;2023-04-03T07:47:30;4.20;99.90
24262;DHT22;12385;51.412;5.540;2023-04-03T07:49:57;4.30;99.90
24262;DHT22;12385;51.412;5.540;2023-04-03T07:52:23;4.30;99.90
24262;DHT22;12385;51.412;5.540;2023-04-03T07:54:49;4.40;99.90
24262;DHT22;12385;51.412;5.540;2023-04-03T07:57:14;4.50;99.90
24262;DHT22;12385;51.412;5.540;2023-04-03T07:59:40;4.50;99.90
24262;DHT22;12385;51.412;5.540;2023-04-03T08:02:09;4.60;99.90
24262;DHT22;12385;51.412;5.540;2023-04-03T08:04:35;4.60;99.90
24262;DHT22;12385;51.412;5.540;2023-04-03T08:07:01;4.70;99.90
24262;DHT22;12385;51.412;5.540;2023-04-03T08:09:27;4.70;99.90
24262;DHT22;12385;51.412;5.540;2023-04-03T08:11:52;4.70;99.90
24262;DHT22;12385;51.412;5.540;2023-04-03T08:14:19;4.70;99.90
24262;DHT22;12385;51.412;5.540;2023-04-03T08:16:46;4.70;99.90
24262;DHT22;12385;51.412;5.540;2023-04-03T08:19:12;4.80;99.90
24262;DHT22;12385;51.412;5.540;2023-04-03T08:21:40;4.80;99.90
24262;DHT22;12385;51.412;5.540;2023-04-03T08:24:07;4.80;99.90
24262;DHT22;12385;51.412;5.540;2023-04-03T08:26:33;4.80;99.90
24262;DHT22;12385;51.412;5.540;2023-04-03T08:28:58;4.80;99.90
24262;DHT22;12385;51.412;5.540;2023-04-03T08:31:25;4.90;99.90
24262;DHT22;12385;51.412;5.540;2023-04-03T08:33:51;5.00;99.90
24262;DHT22;12385;51.412;5.540;2023-04-03T08:36:21;5.00;99.90
24262;DHT22;12385;51.412;5.540;2023-04-03T08:38:49;5.10;99.90
24262;DHT22;12385;51.412;5.540;2023-04-03T08:41:38;5.10;99.90
24262;DHT22;12385;51.412;5.540;2023-04-03T08:49:59;5.40;99.90
24262;DHT22;12385;51.412;5.540;2023-04-03T08:57:45;5.60;99.90
24262;DHT22;12385;51.412;5.540;2023-04-03T09:02:45;5.60;99.90
24262;DHT22;12385;51.412;5.540;2023-04-03T09:07:47;5.70;99.90
24262;DHT22;12385;51.412;5.540;2023-04-03T09:10:15;5.70;99.90
24262;DHT22;12385;51.412;5.540;2023-04-03T09:12:59;5.70;99.90
24262;DHT22;12385;51.412;5.540;2023-04-03T09:15:26;5.80;99.90
24262;DHT22;12385;51.412;5.540;2023-04-03T09:18:20;5.80;99.90
24262;DHT22;12385;51.412;5.540;2023-04-03T09:26:28;5.90;99.90
24262;DHT22;12385;51.412;5.540;2023-04-03T09:28:57;5.90;99.90
24262;DHT22;12385;51.412;5.540;2023-04-03T09:31:25;6.00;99.90
24262;DHT22;12385;51.412;5.540;2023-04-03T09:33:56;6.00;99.90
24262;DHT22;12385;51.412;5.540;2023-04-03T09:36:40;5.90;99.90
24262;DHT22;12385;51.412;5.540;2023-04-03T09:39:11;6.00;99.90
24262;DHT22;12385;51.412;5.540;2023-04-03T09:41:37;6.00;99.90
24262;DHT22;12385;51.412;5.540;2023-04-03T09:44:04;6.10;99.90
24262;DHT22;12385;51.412;5.540;2023-04-03T09:46:44;6.10;99.90
24262;DHT22;12385;51.412;5.540;2023-04-03T09:49:11;6.10;99.90
24262;DHT22;12385;51.412;5.540;2023-04-03T09:51:37;6.20;99.90
24262;DHT22;12385;51.412;5.540;2023-04-03T09:54:33;6.20;99.90
24262;DHT22;12385;51.412;5.540;2023-04-03T09:57:13;6.30;99.90
24262;DHT22;12385;51.412;5.540;2023-04-03T09:59:47;6.40;99.90
24262;DHT22;12385;51.412;5.540;2023-04-03T10:02:36;6.40;99.90
24262;DHT22;12385;51.412;5.540;2023-04-03T10:05:05;6.40;99.90
24262;DHT22;12385;51.412;5.540;2023-04-03T10:10:44;6.60;98.80
24262;DHT22;12385;51.412;5.540;2023-04-03T10:21:20;6.70;96.60
24262;DHT22;12385;51.412;5.540;2023-04-03T10:24:00;6.80;96.70
24262;DHT22;12385;51.412;5.540;2023-04-03T10:29:21;6.80;96.70
24262;DHT22;12385;51.412;5.540;2023-04-03T10:34:53;6.90;95.60
24262;DHT22;12385;51.412;5.540;2023-04-03T10:37:26;7.10;94.80
24262;DHT22;12385;51.412;5.540;2023-04-03T10:40:20;7.20;94.10
24262;DHT22;12385;51.412;5.540;2023-04-03T10:42:53;7.30;93.90
24262;DHT22;12385;51.412;5.540;2023-04-03T10:45:26;7.40;93.10
24262;DHT22;12385;51.412;5.540;2023-04-03T10:53:15;7.50;91.80
24262;DHT22;12385;51.412;5.540;2023-04-03T10:58:44;7.60;90.80
24262;DHT22;12385;51.412;5.540;2023-04-03T11:01:18;7.70;90.50
24262;DHT22;12385;51.412;5.540;2023-04-03T11:03:53;7.80;90.20
24262;DHT22;12385;51.412;5.540;2023-04-03T11:06:21;7.90;88.60
24262;DHT22;12385;51.412;5.540;2023-04-03T11:08:53;8.00;87.80
24262;DHT22;12385;51.412;5.540;2023-04-03T11:11:27;8.00;86.10
24262;DHT22;12385;51.412;5.540;2023-04-03T11:16:31;8.00;86.60
24262;DHT22;12385;51.412;5.540;2023-04-03T11:19:24;8.10;86.40
24262;DHT22;12385;51.412;5.540;2023-04-03T11:21:57;8.10;87.00
24262;DHT22;12385;51.412;5.540;2023-04-03T11:24:27;8.20;86.10
24262;DHT22;12385;51.412;5.540;2023-04-03T11:26:58;8.30;84.40
24262;DHT22;12385;51.412;5.540;2023-04-03T11:29:31;8.50;83.00
24262;DHT22;12385;51.412;5.540;2023-04-03T11:34:44;8.70;82.40
24262;DHT22;12385;51.412;5.540;2023-04-03T11:37:25;8.70;82.20
24262;DHT22;12385;51.412;5.540;2023-04-03T11:40:22;8.80;81.60
24262;DHT22;12385;51.412;5.540;2023-04-03T11:42:52;8.80;80.60
24262;DHT22;12385;51.412;5.540;2023-04-03T11:47:58;8.80;79.40
24262;DHT22;12385;51.412;5.540;2023-04-03T11:50:45;8.90;80.10
24262;DHT22;12385;51.412;5.540;2023-04-03T11:58:30;9.20;76.50
24262;DHT22;12385;51.412;5.540;2023-04-03T12:00:59;9.30;76.20
24262;DHT22;12385;51.412;5.540;2023-04-03T12:14:12;9.70;73.20
24262;DHT22;12385;51.412;5.540;2023-04-03T12:29:33;10.20;71.10
24262;DHT22;12385;51.412;5.540;2023-04-03T12:35:35;10.50;69.00
24262;DHT22;12385;51.412;5.540;2023-04-03T12:38:33;10.50;68.00
24262;DHT22;12385;51.412;5.540;2023-04-03T12:46:28;10.90;66.20
24262;DHT22;12385;51.412;5.540;2023-04-03T12:48:59;11.00;65.30
24262;DHT22;12385;51.412;5.540;2023-04-03T12:51:34;11.00;63.70
24262;DHT22;12385;51.412;5.540;2023-04-03T12:54:15;11.00;63.60
24262;DHT22;12385;51.412;5.540;2023-04-03T12:56:42;11.10;64.00
24262;DHT22;12385;51.412;5.540;2023-04-03T12:59:22;11.30;63.50
24262;DHT22;12385;51.412;5.540;2023-04-03T13:01:56;11.30;62.00
24262;DHT22;12385;51.412;5.540;2023-04-03T13:04:22;11.40;61.80
24262;DHT22;12385;51.412;5.540;2023-04-03T13:06:49;11.50;62.30
24262;DHT22;12385;51.412;5.540;2023-04-03T13:09:22;11.70;61.90
24262;DHT22;12385;51.412;5.540;2023-04-03T13:11:50;11.90;61.90
24262;DHT22;12385;51.412;5.540;2023-04-03T13:14:22;12.00;60.30
24262;DHT22;12385;51.412;5.540;2023-04-03T13:16:58;12.20;60.20
24262;DHT22;12385;51.412;5.540;2023-04-03T13:19:25;12.30;60.00
24262;DHT22;12385;51.412;5.540;2023-04-03T13:22:07;12.50;60.00
24262;DHT22;12385;51.412;5.540;2023-04-03T13:24:37;12.60;59.50
24262;DHT22;12385;51.412;5.540;2023-04-03T13:27:04;12.70;60.00
24262;DHT22;12385;51.412;5.540;2023-04-03T13:29:33;12.90;60.70
24262;DHT22;12385;51.412;5.540;2023-04-03T13:32:00;13.30;60.80
24262;DHT22;12385;51.412;5.540;2023-04-03T13:34:32;13.70;60.60
24262;DHT22;12385;51.412;5.540;2023-04-03T13:37:01;13.90;58.60
24262;DHT22;12385;51.412;5.540;2023-04-03T13:39:37;14.10;58.30
24262;DHT22;12385;51.412;5.540;2023-04-03T13:42:36;14.50;57.80
24262;DHT22;12385;51.412;5.540;2023-04-03T13:47:47;15.20;57.10
24262;DHT22;12385;51.412;5.540;2023-04-03T13:55:26;15.40;54.40
24262;DHT22;12385;51.412;5.540;2023-04-03T13:58:20;15.60;53.10
24262;DHT22;12385;51.412;5.540;2023-04-03T14:01:11;15.70;53.00
24262;DHT22;12385;51.412;5.540;2023-04-03T14:03:47;15.70;52.20
24262;DHT22;12385;51.412;5.540;2023-04-03T14:06:15;15.80;52.30
24262;DHT22;12385;51.412;5.540;2023-04-03T14:08:42;16.10;52.00
24262;DHT22;12385;51.412;5.540;2023-04-03T14:11:18;16.10;50.90
24262;DHT22;12385;51.412;5.540;2023-04-03T14:13:45;16.10;50.60
24262;DHT22;12385;51.412;5.540;2023-04-03T14:16:31;16.20;50.30
24262;DHT22;12385;51.412;5.540;2023-04-03T14:18:57;16.30;49.10
24262;DHT22;12385;51.412;5.540;2023-04-03T14:21:23;16.40;49.60
24262;DHT22;12385;51.412;5.540;2023-04-03T14:23:49;16.70;49.60
24262;DHT22;12385;51.412;5.540;2023-04-03T14:26:18;17.00;48.80
24262;DHT22;12385;51.412;5.540;2023-04-03T14:28:47;17.20;47.50
24262;DHT22;12385;51.412;5.540;2023-04-03T14:31:14;16.90;47.30
24262;DHT22;12385;51.412;5.540;2023-04-03T14:33:41;17.00;47.60
24262;DHT22;12385;51.412;5.540;2023-04-03T14:36:14;17.30;47.20
24262;DHT22;12385;51.412;5.540;2023-04-03T14:38:40;17.40;46.00
24262;DHT22;12385;51.412;5.540;2023-04-03T14:41:06;17.30;45.60
24262;DHT22;12385;51.412;5.540;2023-04-03T14:43:32;17.10;45.60
24262;DHT22;12385;51.412;5.540;2023-04-03T14:45:58;17.10;46.00
24262;DHT22;12385;51.412;5.540;2023-04-03T14:48:26;17.30;46.10
24262;DHT22;12385;51.412;5.540;2023-04-03T14:50:53;17.60;45.40
24262;DHT22;12385;51.412;5.540;2023-04-03T14:53:20;17.80;44.90
24262;DHT22;12385;51.412;5.540;2023-04-03T14:55:50;17.80;45.00
24262;DHT22;12385;51.412;5.540;2023-04-03T14:58:18;17.80;44.50
24262;DHT22;12385;51.412;5.540;2023-04-03T15:00:44;18.00;44.20
24262;DHT22;12385;51.412;5.540;2023-04-03T15:03:16;18.10;43.70
24262;DHT22;12385;51.412;5.540;2023-04-03T15:05:43;18.30;42.60
24262;DHT22;12385;51.412;5.540;2023-04-03T15:08:38;18.10;42.30
24262;DHT22;12385;51.412;5.540;2023-04-03T15:11:06;18.30;42.00
24262;DHT22;12385;51.412;5.540;2023-04-03T15:13:32;18.20;43.10
24262;DHT22;12385;51.412;5.540;2023-04-03T15:15:58;18.30;43.20
24262;DHT22;12385;51.412;5.540;2023-04-03T15:18:26;18.60;42.70
24262;DHT22;12385;51.412;5.540;2023-04-03T15:20:56;18.60;41.80
24262;DHT22;12385;51.412;5.540;2023-04-03T15:23:23;18.30;41.50
24262;DHT22;12385;51.412;5.540;2023-04-03T15:25:53;18.00;42.10
24262;DHT22;12385;51.412;5.540;2023-04-03T15:28:28;18.10;42.40
24262;DHT22;12385;51.412;5.540;2023-04-03T15:30:55;18.30;41.70
24262;DHT22;12385;51.412;5.540;2023-04-03T15:33:21;18.30;41.70
24262;DHT22;12385;51.412;5.540;2023-04-03T15:35:47;18.50;42.00
24262;DHT22;12385;51.412;5.540;2023-04-03T15:38:13;18.70;41.00
24262;DHT22;12385;51.412;5.540;2023-04-03T15:40:38;18.70;40.90
24262;DHT22;12385;51.412;5.540;2023-04-03T15:43:06;18.50;40.80
24262;DHT22;12385;51.412;5.540;2023-04-03T15:45:32;18.40;40.90
24262;DHT22;12385;51.412;5.540;2023-04-03T15:47:59;18.40;40.80
24262;DHT22;12385;51.412;5.540;2023-04-03T15:50:25;18.50;40.50
24262;DHT22;12385;51.412;5.540;2023-04-03T15:52:52;18.70;40.50
24262;DHT22;12385;51.412;5.540;2023-04-03T15:55:24;18.90;40.20
24262;DHT22;12385;51.412;5.540;2023-04-03T15:57:51;18.80;39.80
24262;DHT22;12385;51.412;5.540;2023-04-03T16:00:17;18.50;40.00
24262;DHT22;12385;51.412;5.540;2023-04-03T16:02:45;17.90;40.00
24262;DHT22;12385;51.412;5.540;2023-04-03T16:05:13;17.40;40.60
24262;DHT22;12385;51.412;5.540;2023-04-03T16:07:40;17.10;41.50
24262;DHT22;12385;51.412;5.540;2023-04-03T16:10:07;17.00;41.70
24262;DHT22;12385;51.412;5.540;2023-04-03T16:12:33;17.30;41.60
24262;DHT22;12385;51.412;5.540;2023-04-03T16:14:59;17.30;41.00
24262;DHT22;12385;51.412;5.540;2023-04-03T16:17:26;17.10;41.10
24262;DHT22;12385;51.412;5.540;2023-04-03T16:19:52;16.90;41.20
24262;DHT22;12385;51.412;5.540;2023-04-03T16:22:19;16.60;41.30
24262;DHT22;12385;51.412;5.540;2023-04-03T16:24:44;16.30;42.40
24262;DHT22;12385;51.412;5.540;2023-04-03T16:27:11;16.30;42.20
24262;DHT22;12385;51.412;5.540;2023-04-03T16:29:37;16.20;42.10
24262;DHT22;12385;51.412;5.540;2023-04-03T16:32:03;15.80;42.30
24262;DHT22;12385;51.412;5.540;2023-04-03T16:34:29;15.60;42.70
24262;DHT22;12385;51.412;5.540;2023-04-03T16:36:57;15.50;43.10
24262;DHT22;12385;51.412;5.540;2023-04-03T16:39:23;15.50;43.30
24262;DHT22;12385;51.412;5.540;2023-04-03T16:41:49;15.50;43.40
24262;DHT22;12385;51.412;5.540;2023-04-03T16:44:16;15.40;43.60
24262;DHT22;12385;51.412;5.540;2023-04-03T16:46:43;15.40;43.70
24262;DHT22;12385;51.412;5.540;2023-04-03T16:49:08;15.40;43.90
24262;DHT22;12385;51.412;5.540;2023-04-03T16:51:34;15.40;43.70
24262;DHT22;12385;51.412;5.540;2023-04-03T16:54:00;15.20;43.50
24262;DHT22;12385;51.412;5.540;2023-04-03T16:56:26;15.00;43.80
24262;DHT22;12385;51.412;5.540;2023-04-03T16:58:52;14.80;43.90
24262;DHT22;12385;51.412;5.540;2023-04-03T17:01:20;14.70;44.20
24262;DHT22;12385;51.412;5.540;2023-04-03T17:03:47;14.70;44.30
24262;DHT22;12385;51.412;5.540;2023-04-03T17:06:16;14.70;44.50
24262;DHT22;12385;51.412;5.540;2023-04-03T17:08:47;14.70;44.50
24262;DHT22;12385;51.412;5.540;2023-04-03T17:11:14;14.40;45.20
24262;DHT22;12385;51.412;5.540;2023-04-03T17:13:40;14.20;45.00
24262;DHT22;12385;51.412;5.540;2023-04-03T17:16:09;13.70;45.70
24262;DHT22;12385;51.412;5.540;2023-04-03T17:18:37;13.50;46.80
24262;DHT22;12385;51.412;5.540;2023-04-03T17:21:03;13.20;46.40
24262;DHT22;12385;51.412;5.540;2023-04-03T17:23:29;12.90;46.80
24262;DHT22;12385;51.412;5.540;2023-04-03T17:25:55;12.70;47.10
24262;DHT22;12385;51.412;5.540;2023-04-03T17:28:22;12.50;47.40
24262;DHT22;12385;51.412;5.540;2023-04-03T17:30:54;12.20;47.90
24262;DHT22;12385;51.412;5.540;2023-04-03T17:33:19;12.10;48.40
24262;DHT22;12385;51.412;5.540;2023-04-03T17:35:45;12.10;48.90
24262;DHT22;12385;51.412;5.540;2023-04-03T17:38:11;12.10;49.20
24262;DHT22;12385;51.412;5.540;2023-04-03T17:40:37;12.00;49.30
24262;DHT22;12385;51.412;5.540;2023-04-03T17:43:03;11.90;49.70